Time;durP1;ratioP1;P1;durP2;ratioP2;P2;SDS_P1;SDS_P2;PMS_P1;PMS_P2;Temp;Humidity;BMP_temperature;BMP_pressure;BME280_temperature;BME280_humidity;BME280_pressure;Samples;Min_cycle;Max_cycle;Signal;HPM_P1;HPM_P2
2022/05/09 00:00:33;;;;;;;;;;;;;;;16.01;56.32;98754.34;4974589;28;19980;-57
2022/05/09 00:03:03;;;;;;;;;;;;;;;16.03;55.99;98752.88;4972269;28;19929;-51
2022/05/09 00:05:31;;;;;;;;;;;;;;;15.92;56.16;98755.16;4977602;28;19925;-57
2022/05/09 00:07:58;;;;;;;;;;;;;;;15.85;56.60;98754.88;4978089;28;19925;-57
2022/05/09 00:10:28;;;;;;;;;;;;;;;15.90;56.57;98756.63;4973853;28;19930;-56
2022/05/09 00:12:56;;;;;;;;;;;;;;;15.84;56.46;98760.69;4975239;28;19926;-57
2022/05/09 00:15:28;;;;;;;;;;;;;;;15.96;56.31;98758.06;4977079;28;20343;-57
2022/05/09 00:17:56;;;;;;;;;;;;;;;15.83;56.64;98753.59;4973366;28;20375;-55
2022/05/09 00:20:26;;;;;;;;;;;;;;;15.79;56.60;98756.19;4977127;28;19934;-57
2022/05/09 00:22:55;;;;;;;;;;;;;;;15.91;56.67;98759.03;4976178;28;19933;-56
2022/05/09 00:25:24;;;;;;;;;;;;;;;15.96;56.75;98758.06;4979130;28;19936;-50
2022/05/09 00:27:52;;;;;;;;;;;;;;;16.05;55.96;98760.81;4976714;28;20337;-58
2022/05/09 00:30:21;;;;;;;;;;;;;;;16.08;55.93;98766.41;4976426;28;19926;-57
2022/05/09 00:32:49;;;;;;;;;;;;;;;16.16;56.13;98765.59;4973565;28;19965;-56
2022/05/09 00:35:17;;;;;;;;;;;;;;;16.13;56.06;98760.75;4975789;28;20570;-57
2022/05/09 00:37:46;;;;;;;;;;;;;;;16.15;56.06;98761.25;4978787;28;19930;-57
2022/05/09 00:43:22;;;;;;;;;;;;;;;16.01;55.90;98757.91;4977997;28;19933;-54
2022/05/09 00:45:50;;;;;;;;;;;;;;;16.03;55.78;98763.03;4977145;28;19930;-57
2022/05/09 00:48:18;;;;;;;;;;;;;;;16.01;55.88;98768.88;4978888;28;19933;-57
2022/05/09 00:51:10;;;;;;;;;;;;;;;16.01;55.40;98768.06;4981253;28;19933;-50
2022/05/09 00:53:40;;;;;;;;;;;;;;;15.97;55.12;98768.69;4981301;28;19926;-57
2022/05/09 00:56:12;;;;;;;;;;;;;;;16.03;55.01;98761.09;4976255;28;19926;-57
2022/05/09 00:58:41;;;;;;;;;;;;;;;16.11;55.18;98757.56;4974863;28;19926;-57
2022/05/09 01:01:11;;;;;;;;;;;;;;;16.09;54.96;98751.59;4977545;28;19929;-56
2022/05/09 01:03:40;;;;;;;;;;;;;;;16.03;55.07;98761.09;4983569;28;20317;-57
2022/05/09 01:06:33;;;;;;;;;;;;;;;16.09;55.62;98762.56;4975843;28;20000;-57
2022/05/09 01:09:03;;;;;;;;;;;;;;;16.05;55.99;98758.88;4974136;28;19937;-52
2022/05/09 01:12:21;;;;;;;;;;;;;;;15.95;56.36;98756.47;4979291;28;19933;-55
2022/05/09 01:14:49;;;;;;;;;;;;;;;15.85;56.64;98759.56;4977761;28;20721;-55
2022/05/09 01:17:17;;;;;;;;;;;;;;;15.79;56.65;98760.84;4977987;28;19989;-53
2022/05/09 01:19:45;;;;;;;;;;;;;;;15.73;57.09;98756.69;4978031;28;19926;-55
2022/05/09 01:22:22;;;;;;;;;;;;;;;15.73;57.37;98748.47;4978607;28;19944;-54
2022/05/09 01:24:50;;;;;;;;;;;;;;;15.70;57.64;98755.38;4982227;28;19933;-55
2022/05/09 01:27:18;;;;;;;;;;;;;;;15.67;57.43;98754.09;4978407;28;19930;-57
2022/05/09 01:29:49;;;;;;;;;;;;;;;15.57;57.27;98753.59;4976493;28;19971;-57
2022/05/09 01:32:18;;;;;;;;;;;;;;;15.49;57.31;98751.66;4974472;28;19926;-57
2022/05/09 01:34:47;;;;;;;;;;;;;;;15.48;57.35;98752.78;4978235;28;19945;-57
2022/05/09 01:37:15;;;;;;;;;;;;;;;15.55;56.99;98755.84;4977879;28;19926;-57
2022/05/09 01:39:44;;;;;;;;;;;;;;;15.53;57.12;98753.44;4978854;28;20128;-57
2022/05/09 01:42:11;;;;;;;;;;;;;;;15.48;56.96;98756.34;4977015;28;19925;-57
2022/05/09 01:44:41;;;;;;;;;;;;;;;15.49;57.48;98752.47;4982549;28;19936;-56
2022/05/09 01:49:55;;;;;;;;;;;;;;;15.33;57.88;98760.34;4981950;28;19926;-55
2022/05/09 01:52:23;;;;;;;;;;;;;;;15.28;58.23;98762.44;4983765;28;19930;-51
2022/05/09 01:54:52;;;;;;;;;;;;;;;15.31;58.13;98764.56;4980857;28;19937;-56
2022/05/09 01:57:20;;;;;;;;;;;;;;;15.33;58.24;98770.50;4981219;28;20371;-57
2022/05/09 01:59:48;;;;;;;;;;;;;;;15.33;58.27;98762.28;4982527;28;19934;-57
2022/05/09 02:02:41;;;;;;;;;;;;;;;15.35;58.57;98751.84;4979370;28;20401;-54
2022/05/09 02:05:12;;;;;;;;;;;;;;;15.24;58.49;98758.75;4976613;28;19962;-56
2022/05/09 02:07:40;;;;;;;;;;;;;;;15.25;58.64;98763.09;4983411;28;19980;-57
2022/05/09 02:10:10;;;;;;;;;;;;;;;15.23;58.53;98765.34;4977596;28;19936;-57
2022/05/09 02:12:39;;;;;;;;;;;;;;;15.16;58.77;98757.59;4976977;28;20331;-55
2022/05/09 02:15:11;;;;;;;;;;;;;;;15.17;58.69;98753.75;4982981;28;19984;-57
2022/05/09 02:17:40;;;;;;;;;;;;;;;15.18;58.84;98764.38;4976129;28;19926;-57
2022/05/09 02:20:10;;;;;;;;;;;;;;;15.16;58.60;98760.34;4976664;28;19938;-57
2022/05/09 02:22:38;;;;;;;;;;;;;;;15.15;58.51;98761.47;4977610;28;19969;-57
2022/05/09 02:25:26;;;;;;;;;;;;;;;15.10;58.71;98759.69;4983409;28;19976;-57
2022/05/09 02:27:56;;;;;;;;;;;;;;;15.10;59.10;98765.16;4980246;28;20023;-56
2022/05/09 02:30:29;;;;;;;;;;;;;;;15.01;59.02;98774.50;4976747;28;20020;-54
2022/05/09 02:32:57;;;;;;;;;;;;;;;14.96;58.99;98769.97;4982855;28;19930;-57
2022/05/09 02:35:25;;;;;;;;;;;;;;;14.98;59.02;98765.00;4982284;28;19963;-58
2022/05/09 02:37:53;;;;;;;;;;;;;;;14.98;58.66;98775.16;4979865;28;19930;-50
2022/05/09 02:40:21;;;;;;;;;;;;;;;15.02;59.18;98765.97;4976267;28;20567;-57
2022/05/09 02:42:49;;;;;;;;;;;;;;;15.05;58.68;98767.25;4980545;28;19926;-55
2022/05/09 02:45:18;;;;;;;;;;;;;;;15.01;58.61;98767.09;4976199;28;19953;-57
2022/05/09 02:47:46;;;;;;;;;;;;;;;15.00;58.35;98768.22;4977510;28;20305;-57
2022/05/09 02:50:14;;;;;;;;;;;;;;;14.98;59.23;98767.75;4972422;28;19973;-56
2022/05/09 02:52:42;;;;;;;;;;;;;;;14.93;58.97;98768.69;4974991;28;20187;-54
2022/05/09 02:55:11;;;;;;;;;;;;;;;14.90;58.88;98765.78;4974051;28;20367;-57
2022/05/09 02:57:39;;;;;;;;;;;;;;;14.94;59.10;98761.28;4977000;28;20254;-57
2022/05/09 03:00:08;;;;;;;;;;;;;;;14.93;58.90;98765.16;4977062;28;19968;-57
2022/05/09 03:02:41;;;;;;;;;;;;;;;14.83;59.10;98762.72;4995255;28;19926;-57
2022/05/09 03:05:08;;;;;;;;;;;;;;;14.65;59.31;98761.88;4981354;28;20417;-56
2022/05/09 03:07:36;;;;;;;;;;;;;;;14.54;59.67;98760.50;4981098;28;19930;-56
2022/05/09 03:10:09;;;;;;;;;;;;;;;14.57;59.56;98760.69;4978557;28;19970;-56
2022/05/09 03:12:36;;;;;;;;;;;;;;;14.50;60.17;98763.09;4976556;28;20511;-57
2022/05/09 03:15:05;;;;;;;;;;;;;;;14.49;60.32;98764.22;4981117;28;19934;-56
2022/05/09 03:17:34;;;;;;;;;;;;;;;14.45;60.25;98760.47;4974640;28;19926;-57
2022/05/09 03:20:04;;;;;;;;;;;;;;;14.49;60.42;98763.41;4974518;28;19929;-57
2022/05/09 03:22:33;;;;;;;;;;;;;;;14.47;60.34;98763.72;4975025;28;19926;-56
2022/05/09 03:25:01;;;;;;;;;;;;;;;14.49;60.16;98766.97;4975169;28;19961;-56
2022/05/09 03:27:29;;;;;;;;;;;;;;;14.30;60.54;98766.34;4977755;28;19926;-56
2022/05/09 03:29:57;;;;;;;;;;;;;;;14.31;60.58;98770.69;4979706;28;19973;-57
2022/05/09 03:32:24;;;;;;;;;;;;;;;14.28;60.78;98765.88;4974475;28;19949;-56
2022/05/09 03:34:55;;;;;;;;;;;;;;;14.26;60.84;98768.09;4979094;28;19962;-49
2022/05/09 03:37:25;;;;;;;;;;;;;;;14.32;60.94;98773.09;4972388;28;19934;-56
2022/05/09 03:39:53;;;;;;;;;;;;;;;14.27;61.10;98775.16;4972706;28;19930;-55
2022/05/09 03:42:21;;;;;;;;;;;;;;;14.27;60.99;98772.44;4974384;28;20461;-57
2022/05/09 03:44:49;;;;;;;;;;;;;;;14.29;61.17;98778.41;4974155;28;20375;-57
2022/05/09 03:47:17;;;;;;;;;;;;;;;14.31;60.97;98771.50;4973373;28;19985;-57
2022/05/09 03:49:45;;;;;;;;;;;;;;;14.26;61.20;98770.84;4973711;28;19933;-57
2022/05/09 03:52:14;;;;;;;;;;;;;;;14.25;61.42;98769.22;4974586;28;19933;-56
2022/05/09 03:55:07;;;;;;;;;;;;;;;14.24;61.53;98778.56;4973250;28;20017;-57
2022/05/09 03:57:36;;;;;;;;;;;;;;;14.20;61.54;98777.56;4973687;28;19942;-57
2022/05/09 04:00:05;;;;;;;;;;;;;;;14.21;61.58;98781.91;4972887;28;19926;-57
2022/05/09 04:02:42;;;;;;;;;;;;;;;14.18;61.28;98771.63;4972057;28;20017;-57
2022/05/09 04:05:15;;;;;;;;;;;;;;;14.20;61.10;98783.03;4972367;28;19926;-56
2022/05/09 04:07:45;;;;;;;;;;;;;;;14.22;61.06;98780.78;4974542;28;19976;-57
2022/05/09 04:10:12;;;;;;;;;;;;;;;14.23;61.38;98782.41;4973704;28;20194;-57
2022/05/09 04:12:43;;;;;;;;;;;;;;;14.35;60.87;98774.41;4973218;28;20012;-57
2022/05/09 04:17:56;;;;;;;;;;;;;;;14.33;60.62;98779.41;4974060;28;19927;-55
2022/05/09 04:20:26;;;;;;;;;;;;;;;14.41;60.41;98786.81;4976447;28;20056;-57
2022/05/09 04:23:18;;;;;;;;;;;;;;;14.46;60.29;98785.88;4974931;28;20397;-57
2022/05/09 04:25:51;;;;;;;;;;;;;;;14.56;60.32;98780.97;4979010;28;20362;-57
2022/05/09 04:28:22;;;;;;;;;;;;;;;14.61;59.79;98780.03;4979587;28;19949;-57
2022/05/09 04:30:56;;;;;;;;;;;;;;;14.68;59.62;98788.56;4981812;28;20009;-56
2022/05/09 04:33:28;;;;;;;;;;;;;;;14.64;59.68;98788.38;4982524;28;20017;-56
2022/05/09 04:35:57;;;;;;;;;;;;;;;14.66;59.57;98791.63;4977604;28;19926;-59
2022/05/09 04:38:26;;;;;;;;;;;;;;;14.65;59.38;98798.22;4975907;28;20402;-58
2022/05/09 04:40:56;;;;;;;;;;;;;;;14.67;59.11;98792.44;4983656;28;20024;-57
2022/05/09 04:43:26;;;;;;;;;;;;;;;14.51;59.31;98788.50;4976448;28;19933;-59
2022/05/09 04:45:54;;;;;;;;;;;;;;;14.38;59.67;98791.00;4920310;28;19931;-58
2022/05/09 04:48:47;;;;;;;;;;;;;;;14.25;60.17;98799.28;4949641;29;20458;-58
2022/05/09 04:51:15;;;;;;;;;;;;;;;14.18;60.56;98797.00;4947343;29;20484;-59
2022/05/09 04:53:45;;;;;;;;;;;;;;;14.31;60.37;98800.75;4948720;29;19986;-58
2022/05/09 04:56:13;;;;;;;;;;;;;;;14.39;59.95;98800.81;4949778;29;19931;-58
2022/05/09 04:58:42;;;;;;;;;;;;;;;14.45;59.82;98801.47;4948865;29;20020;-57
2022/05/09 05:01:11;;;;;;;;;;;;;;;14.51;60.06;98802.97;4952029;29;19927;-59
2022/05/09 05:03:39;;;;;;;;;;;;;;;14.63;59.59;98797.72;4946096;29;20463;-58
2022/05/09 05:06:32;;;;;;;;;;;;;;;14.73;59.40;98801.28;4947862;29;20017;-59
2022/05/09 05:09:01;;;;;;;;;;;;;;;14.71;59.17;98804.34;4951364;29;20294;-58
2022/05/09 05:11:29;;;;;;;;;;;;;;;14.77;59.12;98802.28;4947695;28;19930;-60
2022/05/09 05:13:59;;;;;;;;;;;;;;;14.79;59.00;98805.50;4951504;29;19926;-58
2022/05/09 05:19:24;;;;;;;;;;;;;;;14.94;58.78;98803.13;4947791;28;20347;-57
2022/05/09 05:21:52;;;;;;;;;;;;;;;15.01;58.72;98802.66;4951683;29;20437;-54
2022/05/09 05:24:20;;;;;;;;;;;;;;;15.07;58.42;98809.59;4950865;28;19926;-59
2022/05/09 05:26:48;;;;;;;;;;;;;;;15.02;58.17;98804.28;4951940;28;19985;-58
2022/05/09 05:29:17;;;;;;;;;;;;;;;15.01;58.08;98793.66;4951098;28;20449;-59
2022/05/09 05:31:46;;;;;;;;;;;;;;;14.99;58.17;98798.63;4950205;29;20399;-59
2022/05/09 05:34:15;;;;;;;;;;;;;;;14.82;58.26;98807.59;4947295;29;19942;-55
2022/05/09 05:36:43;;;;;;;;;;;;;;;14.67;58.53;98811.56;4946319;29;19930;-59
2022/05/09 05:39:15;;;;;;;;;;;;;;;14.54;58.97;98812.47;4949418;28;20442;-58
2022/05/09 05:41:43;;;;;;;;;;;;;;;14.62;58.87;98809.78;4950159;29;19930;-59
2022/05/09 05:44:12;;;;;;;;;;;;;;;14.80;58.97;98812.56;4949926;28;20016;-57
2022/05/09 05:46:41;;;;;;;;;;;;;;;14.88;58.59;98806.34;4949917;29;19970;-59
2022/05/09 05:49:15;;;;;;;;;;;;;;;15.02;58.43;98815.25;4949830;29;19930;-58
2022/05/09 05:51:43;;;;;;;;;;;;;;;14.98;57.88;98814.25;4954125;29;19984;-57
2022/05/09 05:54:11;;;;;;;;;;;;;;;15.02;57.94;98815.25;4945537;29;19931;-58
2022/05/09 05:56:39;;;;;;;;;;;;;;;15.11;57.76;98816.03;4946515;29;19926;-58
2022/05/09 05:59:33;;;;;;;;;;;;;;;15.34;57.69;98805.78;4948503;28;20009;-58
2022/05/09 06:02:03;;;;;;;;;;;;;;;15.36;57.41;98819.94;4943049;29;20303;-57
2022/05/09 06:04:31;;;;;;;;;;;;;;;15.37;57.25;98826.22;4939537;29;20363;-56
2022/05/09 06:06:59;;;;;;;;;;;;;;;15.49;57.31;98826.41;4942318;29;19962;-58
2022/05/09 06:09:27;;;;;;;;;;;;;;;15.52;57.16;98823.03;4947148;29;19938;-58
2022/05/09 06:11:55;;;;;;;;;;;;;;;15.79;56.66;98816.44;4946247;28;20080;-57
2022/05/09 06:15:24;;;;;;;;;;;;;;;15.77;56.20;98829.69;4961616;28;19941;-59
2022/05/09 06:17:37;;;;;;;;;;;;;;;15.88;56.19;98828.22;4945451;29;19941;-59
2022/05/09 06:20:06;;;;;;;;;;;;;;;15.86;55.74;98833.19;4946414;28;19927;-59
2022/05/09 06:22:36;;;;;;;;;;;;;;;16.01;55.78;98831.91;4946563;28;19926;-55
2022/05/09 06:25:04;;;;;;;;;;;;;;;16.05;55.27;98835.63;4946042;29;19926;-57
2022/05/09 06:27:32;;;;;;;;;;;;;;;16.07;55.09;98838.03;4946220;29;19935;-58
2022/05/09 06:30:00;;;;;;;;;;;;;;;16.16;55.14;98842.38;4948160;28;20092;-60
2022/05/09 06:32:28;;;;;;;;;;;;;;;16.19;54.85;98835.41;4943114;28;19982;-58
2022/05/09 06:34:57;;;;;;;;;;;;;;;16.38;54.74;98844.09;4947818;28;19965;-58
2022/05/09 06:37:25;;;;;;;;;;;;;;;16.43;54.08;98843.13;4946761;28;19931;-59
2022/05/09 06:39:53;;;;;;;;;;;;;;;16.53;54.31;98845.50;4946312;29;19930;-54
2022/05/09 06:42:21;;;;;;;;;;;;;;;16.65;53.89;98845.63;4947764;29;19930;-58
2022/05/09 06:44:49;;;;;;;;;;;;;;;16.73;53.64;98842.06;4946943;28;19931;-58
2022/05/09 06:47:19;;;;;;;;;;;;;;;16.87;53.01;98847.31;4942515;29;19926;-59
2022/05/09 06:50:00;;;;;;;;;;;;;;;16.76;53.18;98844.16;4941023;29;20016;-59
2022/05/09 06:52:29;;;;;;;;;;;;;;;16.77;52.92;98844.94;4947200;29;20013;-59
2022/05/09 06:54:57;;;;;;;;;;;;;;;16.79;52.96;98852.88;4945490;29;19934;-59
2022/05/09 06:57:27;;;;;;;;;;;;;;;16.68;52.84;98836.75;4948129;29;20284;-59
2022/05/09 06:59:54;;;;;;;;;;;;;;;16.72;52.82;98847.88;4946297;29;19927;-58
2022/05/09 07:02:23;;;;;;;;;;;;;;;16.86;52.76;98845.72;4939054;29;19938;-55
2022/05/09 07:04:51;;;;;;;;;;;;;;;16.83;53.19;98840.91;4946118;29;19985;-58
2022/05/09 07:07:24;;;;;;;;;;;;;;;16.82;53.19;98844.78;4946510;29;19930;-54
2022/05/09 07:09:52;;;;;;;;;;;;;;;16.97;53.24;98846.16;4948623;29;19927;-53
2022/05/09 07:12:20;;;;;;;;;;;;;;;17.14;52.52;98848.00;4946885;29;19937;-58
2022/05/09 07:14:48;;;;;;;;;;;;;;;17.20;52.18;98844.72;4948038;28;19927;-58
2022/05/09 07:17:18;;;;;;;;;;;;;;;17.33;52.08;98845.63;4947029;29;20382;-59
2022/05/09 07:19:51;;;;;;;;;;;;;;;17.36;51.48;98841.41;4936979;28;19969;-58
2022/05/09 07:22:20;;;;;;;;;;;;;;;17.40;51.40;98845.09;4933365;29;19934;-58
2022/05/09 07:24:49;;;;;;;;;;;;;;;17.39;51.65;98843.50;4944853;29;19930;-59
2022/05/09 07:27:17;;;;;;;;;;;;;;;17.53;51.95;98849.56;4939604;28;19941;-58
2022/05/09 07:29:45;;;;;;;;;;;;;;;17.51;50.96;98843.56;4945973;29;19952;-58
2022/05/09 07:32:15;;;;;;;;;;;;;;;17.63;51.35;98838.16;4942518;29;19962;-59
2022/05/09 07:34:48;;;;;;;;;;;;;;;17.71;50.58;98844.72;4942914;29;19927;-59
2022/05/09 07:37:17;;;;;;;;;;;;;;;17.82;50.58;98848.69;4940101;29;19930;-59
2022/05/09 07:39:45;;;;;;;;;;;;;;;17.92;50.73;98840.03;4947558;29;19970;-59
2022/05/09 07:42:14;;;;;;;;;;;;;;;17.95;50.73;98844.88;4946535;29;19930;-58
2022/05/09 07:44:42;;;;;;;;;;;;;;;18.11;50.83;98846.97;4947407;29;20276;-58
2022/05/09 07:47:10;;;;;;;;;;;;;;;18.22;50.44;98838.00;4945542;29;20028;-58
2022/05/09 07:49:38;;;;;;;;;;;;;;;18.30;49.88;98839.84;4949888;29;19933;-58
2022/05/09 07:52:10;;;;;;;;;;;;;;;18.39;49.60;98838.94;4949297;29;19926;-59
2022/05/09 07:55:02;;;;;;;;;;;;;;;18.35;48.98;98844.31;4949012;28;20021;-58
2022/05/09 07:57:32;;;;;;;;;;;;;;;18.21;49.24;98841.84;4951320;29;19926;-58
2022/05/09 08:02:54;;;;;;;;;;;;;;;18.49;49.89;98841.28;4958919;28;19938;-58
2022/05/09 08:05:22;;;;;;;;;;;;;;;18.42;49.04;98836.31;4944561;29;19973;-59
2022/05/09 08:07:51;;;;;;;;;;;;;;;18.63;49.51;98838.97;4945887;29;19974;-57
2022/05/09 08:10:19;;;;;;;;;;;;;;;18.72;49.15;98839.72;4946538;29;19981;-57
2022/05/09 08:12:49;;;;;;;;;;;;;;;18.72;48.32;98831.47;4947221;28;19966;-58
2022/05/09 08:18:11;;;;;;;;;;;;;;;18.92;48.24;98839.97;4948677;29;19930;-57
2022/05/09 08:20:40;;;;;;;;;;;;;;;19.01;48.67;98838.69;4946610;29;19934;-57
2022/05/09 08:23:10;;;;;;;;;;;;;;;19.18;48.00;98845.94;4950135;29;20346;-58
2022/05/09 08:25:40;;;;;;;;;;;;;;;19.21;47.30;98839.72;4946812;28;20356;-58
2022/05/09 08:28:09;;;;;;;;;;;;;;;19.09;46.83;98836.97;4944096;28;20021;-58
2022/05/09 08:30:38;;;;;;;;;;;;;;;19.18;47.33;98839.63;4950713;29;20295;-58
2022/05/09 08:33:12;;;;;;;;;;;;;;;19.16;46.95;98836.41;4941806;29;19927;-58
2022/05/09 08:35:40;;;;;;;;;;;;;;;19.35;47.08;98834.66;4950582;28;19927;-56
2022/05/09 08:38:08;;;;;;;;;;;;;;;19.36;46.27;98827.19;4948368;29;22525;-56
2022/05/09 08:40:36;;;;;;;;;;;;;;;19.69;46.19;98834.50;4948816;29;19997;-56
2022/05/09 08:43:06;;;;;;;;;;;;;;;19.72;45.06;98831.84;4950019;28;19934;-56
2022/05/09 08:45:36;;;;;;;;;;;;;;;19.82;45.05;98836.09;4950441;29;19974;-57
2022/05/09 08:48:08;;;;;;;;;;;;;;;20.04;45.22;98826.47;4947782;29;20014;-56
2022/05/09 08:50:41;;;;;;;;;;;;;;;20.18;44.80;98829.59;4951841;29;19974;-56
2022/05/09 08:53:10;;;;;;;;;;;;;;;20.24;44.16;98841.16;4948000;28;19930;-56
2022/05/09 08:55:39;;;;;;;;;;;;;;;20.12;44.32;98842.03;4945830;29;19962;-56
2022/05/09 08:58:13;;;;;;;;;;;;;;;20.27;44.04;98846.78;4943085;29;19927;-55
2022/05/09 09:00:42;;;;;;;;;;;;;;;20.02;44.23;98837.03;4946561;28;19933;-56
2022/05/09 09:03:14;;;;;;;;;;;;;;;20.24;44.23;98841.16;4944813;29;19930;-56
2022/05/09 09:05:43;;;;;;;;;;;;;;;20.33;43.97;98828.03;4940472;28;19934;-55
2022/05/09 09:08:16;;;;;;;;;;;;;;;20.51;43.32;98837.63;4949691;28;19931;-56
2022/05/09 09:10:55;;;;;;;;;;;;;;;20.53;43.16;98834.50;4946145;29;20025;-57
2022/05/09 09:13:28;;;;;;;;;;;;;;;20.42;43.16;98839.72;4947453;29;20336;-54
2022/05/09 09:16:22;;;;;;;;;;;;;;;20.51;43.19;98832.09;4948098;29;19931;-57
2022/05/09 09:18:56;;;;;;;;;;;;;;;20.90;42.26;98827.56;4947903;29;19994;-56
2022/05/09 09:21:26;;;;;;;;;;;;;;;20.66;42.01;98833.25;4947557;29;19931;-56
2022/05/09 09:24:02;;;;;;;;;;;;;;;20.73;41.98;98830.69;4948550;28;19931;-56
2022/05/09 09:26:31;;;;;;;;;;;;;;;20.76;41.88;98835.47;4945370;29;20280;-56
2022/05/09 09:29:00;;;;;;;;;;;;;;;20.67;41.26;98832.13;4946696;29;19937;-57
2022/05/09 09:31:30;;;;;;;;;;;;;;;20.77;41.28;98831.56;4946187;29;20410;-57
2022/05/09 09:34:01;;;;;;;;;;;;;;;20.89;42.76;98827.94;4949768;29;19931;-58
2022/05/09 09:36:35;;;;;;;;;;;;;;;20.92;40.30;98833.50;4948897;29;19926;-58
2022/05/09 09:39:07;;;;;;;;;;;;;;;20.81;39.97;98831.66;4934516;28;20021;-57
2022/05/09 09:41:36;;;;;;;;;;;;;;;20.83;40.20;98829.34;4948947;29;19935;-57
2022/05/09 09:44:06;;;;;;;;;;;;;;;20.94;41.11;98824.91;4948987;29;20343;-58
2022/05/09 09:46:34;;;;;;;;;;;;;;;21.04;40.00;98812.47;4948645;29;20237;-57
2022/05/09 09:49:07;;;;;;;;;;;;;;;21.01;39.25;98814.00;4946921;29;19933;-57
2022/05/09 09:51:44;;;;;;;;;;;;;;;21.22;40.72;98813.72;4949073;28;19941;-58
2022/05/09 09:54:12;;;;;;;;;;;;;;;21.13;40.25;98819.41;4947945;28;20207;-57
2022/05/09 09:56:42;;;;;;;;;;;;;;;20.99;38.41;98815.53;4950350;29;19931;-57
2022/05/09 09:59:34;;;;;;;;;;;;;;;21.22;38.91;98810.16;4947692;28;20430;-57
2022/05/09 10:02:05;;;;;;;;;;;;;;;21.31;37.69;98811.59;4940995;29;19926;-55
2022/05/09 10:04:35;;;;;;;;;;;;;;;21.62;37.21;98815.38;4944885;28;19926;-57
2022/05/09 10:07:04;;;;;;;;;;;;;;;21.63;34.92;98817.00;4946666;29;19926;-56
2022/05/09 10:09:33;;;;;;;;;;;;;;;21.45;35.22;98817.41;4929875;29;19935;-57
2022/05/09 10:15:20;;;;;;;;;;;;;;;21.84;36.28;98805.56;4925052;29;19998;-58
2022/05/09 10:18:13;;;;;;;;;;;;;;;21.49;35.40;98802.88;4921806;29;19934;-57
2022/05/09 10:21:13;;;;;;;;;;;;;;;21.64;37.27;98807.56;4923006;29;20424;-58
2022/05/09 10:26:30;;;;;;;;;;;;;;;22.05;36.81;98797.72;4902117;29;20014;-55
2022/05/09 10:28:59;;;;;;;;;;;;;;;22.02;37.02;98794.88;4920997;29;19927;-58
2022/05/09 10:31:27;;;;;;;;;;;;;;;22.14;36.28;98801.06;4924501;29;19978;-58
2022/05/09 10:33:56;;;;;;;;;;;;;;;22.55;35.71;98800.63;4921014;29;19934;-57
2022/05/09 10:36:27;;;;;;;;;;;;;;;22.52;36.66;98785.53;4922762;29;19933;-57
2022/05/09 10:38:56;;;;;;;;;;;;;;;22.45;37.35;98785.41;4924708;29;20310;-57
2022/05/09 10:41:31;;;;;;;;;;;;;;;22.55;36.43;98787.56;4925893;29;20450;-55
2022/05/09 10:43:59;;;;;;;;;;;;;;;22.17;36.63;98786.50;4921282;29;20343;-56
2022/05/09 10:46:35;;;;;;;;;;;;;;;22.01;35.06;98785.78;4922302;29;19982;-55
2022/05/09 10:49:32;;;;;;;;;;;;;;;21.79;35.62;98781.78;4922415;29;19934;-56
2022/05/09 10:52:04;;;;;;;;;;;;;;;21.77;37.54;98778.56;4905926;29;19927;-57
2022/05/09 10:54:35;;;;;;;;;;;;;;;21.62;38.98;98776.69;4906995;29;19994;-58
2022/05/09 10:57:32;;;;;;;;;;;;;;;21.79;38.14;98781.00;4925146;29;19931;-57
2022/05/09 11:00:12;;;;;;;;;;;;;;;21.51;37.14;98772.88;4921052;29;19927;-57
2022/05/09 11:02:41;;;;;;;;;;;;;;;21.86;37.41;98767.28;4920690;29;19927;-57
2022/05/09 11:05:09;;;;;;;;;;;;;;;21.82;38.18;98767.22;4923255;29;19931;-59
2022/05/09 11:07:44;;;;;;;;;;;;;;;21.81;36.73;98764.81;4926474;29;20336;-57
2022/05/09 11:10:15;;;;;;;;;;;;;;;22.08;36.93;98754.66;4936325;29;19926;-56
2022/05/09 11:12:46;;;;;;;;;;;;;;;21.90;36.41;98760.66;4950776;28;19926;-57
2022/05/09 11:15:18;;;;;;;;;;;;;;;21.97;37.64;98763.56;4946311;29;20483;-56
2022/05/09 11:17:55;;;;;;;;;;;;;;;22.05;37.76;98752.63;4942617;29;19931;-56
2022/05/09 11:20:32;;;;;;;;;;;;;;;22.35;37.07;98752.81;4941926;29;19926;-56
2022/05/09 11:23:06;;;;;;;;;;;;;;;22.57;36.94;98756.72;4946830;28;20375;-57
2022/05/09 11:25:42;;;;;;;;;;;;;;;22.66;36.58;98748.97;4946879;28;19926;-56
2022/05/09 11:28:17;;;;;;;;;;;;;;;22.34;36.12;98745.69;4945822;29;20402;-56
2022/05/09 11:30:46;;;;;;;;;;;;;;;22.12;36.55;98742.53;4948790;28;19945;-56
2022/05/09 11:33:19;;;;;;;;;;;;;;;22.10;36.11;98741.25;4947702;29;19937;-55
2022/05/09 11:35:48;;;;;;;;;;;;;;;22.07;35.59;98733.69;4944233;29;20029;-56
2022/05/09 11:38:26;;;;;;;;;;;;;;;21.83;36.64;98730.09;4942177;29;20029;-56
2022/05/09 11:40:56;;;;;;;;;;;;;;;21.83;36.49;98730.09;4945811;29;19927;-56
2022/05/09 11:43:33;;;;;;;;;;;;;;;22.05;35.84;98724.94;4947431;28;19930;-56
2022/05/09 11:46:03;;;;;;;;;;;;;;;21.92;35.66;98725.13;4943990;28;19935;-55
2022/05/09 11:48:34;;;;;;;;;;;;;;;22.09;35.26;98725.81;4947269;28;19930;-56
2022/05/09 11:51:04;;;;;;;;;;;;;;;22.33;34.68;98721.94;4946015;29;20290;-56
2022/05/09 11:53:38;;;;;;;;;;;;;;;22.32;36.06;98723.91;4945153;29;19953;-56
2022/05/09 11:58:48;;;;;;;;;;;;;;;22.34;36.74;98718.78;4944430;29;19927;-56
2022/05/09 12:01:16;;;;;;;;;;;;;;;22.43;34.46;98722.13;4939832;29;19969;-55
2022/05/09 12:03:53;;;;;;;;;;;;;;;22.55;35.11;98717.56;4943465;29;19986;-56
2022/05/09 12:06:32;;;;;;;;;;;;;;;22.59;33.95;98715.66;4943117;29;20086;-57
2022/05/09 12:09:11;;;;;;;;;;;;;;;22.28;35.35;98714.75;4944170;28;19926;-57
2022/05/09 12:11:45;;;;;;;;;;;;;;;22.32;34.85;98715.59;4940875;29;19931;-57
2022/05/09 12:14:38;;;;;;;;;;;;;;;22.40;33.77;98706.22;4948400;28;19931;-57
2022/05/09 12:17:16;;;;;;;;;;;;;;;22.22;34.78;98711.47;4944299;29;19931;-57
2022/05/09 12:19:44;;;;;;;;;;;;;;;22.05;35.81;98711.94;4944186;28;19993;-57
2022/05/09 12:22:47;;;;;;;;;;;;;;;22.28;35.38;98705.63;4942563;29;20235;-57
2022/05/09 12:25:34;;;;;;;;;;;;;;;22.37;35.51;98711.69;4945307;29;19934;-58
2022/05/09 12:28:05;;;;;;;;;;;;;;;22.78;33.47;98704.44;4945158;29;20506;-57
2022/05/09 12:30:37;;;;;;;;;;;;;;;22.73;34.34;98702.00;4947464;29;19930;-58
2022/05/09 12:33:11;;;;;;;;;;;;;;;22.69;33.65;98703.91;4941218;29;20013;-55
2022/05/09 12:35:39;;;;;;;;;;;;;;;22.49;32.27;98697.69;4945353;28;19934;-55
2022/05/09 12:38:07;;;;;;;;;;;;;;;22.41;32.38;98691.22;4949719;29;19978;-55
2022/05/09 12:40:35;;;;;;;;;;;;;;;22.57;34.18;98693.03;4947406;29;19926;-58
2022/05/09 12:43:04;;;;;;;;;;;;;;;22.76;33.88;98704.03;4946598;29;19934;-55
2022/05/09 12:45:32;;;;;;;;;;;;;;;22.79;32.70;98694.97;4950276;29;19927;-55
2022/05/09 12:48:00;;;;;;;;;;;;;;;22.77;33.70;98702.84;4945546;29;20962;-56
2022/05/09 12:50:34;;;;;;;;;;;;;;;22.62;34.07;98690.75;4944388;29;19926;-55
2022/05/09 12:53:03;;;;;;;;;;;;;;;22.77;35.18;98693.75;4950230;29;19926;-55
2022/05/09 12:58:25;;;;;;;;;;;;;;;22.62;34.75;98690.75;4944601;29;19942;-57
2022/05/09 13:07:10;;;;;;;;;;;;;;;22.57;33.89;98676.44;4945454;29;19926;-57
2022/05/09 13:09:47;;;;;;;;;;;;;;;22.24;35.02;98675.13;4947016;28;19982;-57
2022/05/09 13:12:40;;;;;;;;;;;;;;;22.47;35.20;98678.66;4940281;29;19933;-57
2022/05/09 13:15:11;;;;;;;;;;;;;;;22.68;35.48;98680.94;4944905;29;19934;-56
2022/05/09 13:17:39;;;;;;;;;;;;;;;22.95;33.20;98675.44;4948874;29;19926;-57
2022/05/09 13:20:09;;;;;;;;;;;;;;;23.06;33.08;98667.25;4941625;28;19934;-58
2022/05/09 13:22:38;;;;;;;;;;;;;;;22.91;33.20;98669.06;4951677;28;20280;-57
2022/05/09 13:25:08;;;;;;;;;;;;;;;23.06;33.03;98656.97;4940579;28;19962;-56
2022/05/09 13:27:36;;;;;;;;;;;;;;;23.13;32.59;98662.63;4945449;29;20037;-56
2022/05/09 13:30:05;;;;;;;;;;;;;;;23.14;32.02;98660.66;4939021;28;19926;-57
2022/05/09 13:32:35;;;;;;;;;;;;;;;23.12;32.49;98660.22;4949967;29;20426;-57
2022/05/09 13:35:04;;;;;;;;;;;;;;;23.13;33.86;98648.75;4949847;28;19926;-56
2022/05/09 13:37:33;;;;;;;;;;;;;;;23.13;35.60;98646.00;4947578;28;20339;-57
2022/05/09 13:40:05;;;;;;;;;;;;;;;22.98;33.75;98650.53;4945700;29;19930;-57
2022/05/09 13:42:57;;;;;;;;;;;;;;;22.97;34.18;98646.19;4949331;29;20423;-57
2022/05/09 13:45:26;;;;;;;;;;;;;;;22.84;33.63;98643.97;4944799;29;19934;-56